createdAt,value
2017-10-18T00:02:15.548Z,100589.95
2017-10-18T00:04:43.005Z,100592.31
2017-10-18T00:07:10.525Z,100594.78
2017-10-18T00:09:37.976Z,100594.31
2017-10-18T00:12:05.452Z,100588.97
2017-10-18T00:14:32.916Z,100589.55
2017-10-18T00:17:00.400Z,100588.15
2017-10-18T00:19:27.879Z,100590.38
2017-10-18T00:21:55.442Z,100582.67
2017-10-18T00:24:22.886Z,100585.63
2017-10-18T00:26:50.365Z,100580.77
2017-10-18T00:29:17.821Z,100580.23
2017-10-18T00:31:45.291Z,100581.77
2017-10-18T00:34:12.768Z,100580.48
2017-10-18T00:36:40.300Z,100580.16
2017-10-18T00:39:07.850Z,100573.03
2017-10-18T00:41:35.328Z,100572.53
2017-10-18T00:44:02.858Z,100573.63
2017-10-18T00:46:30.427Z,100574.81
2017-10-18T00:48:57.884Z,100575.49
2017-10-18T00:51:25.355Z,100580.64
2017-10-18T00:53:52.824Z,100573.16
2017-10-18T00:56:20.340Z,100571.36
2017-10-18T00:58:47.812Z,100580.85
2017-10-18T01:01:15.280Z,100581.31
2017-10-18T01:03:42.740Z,100577.56
2017-10-18T01:06:10.284Z,100572.48
2017-10-18T01:08:37.743Z,100579.53
2017-10-18T01:11:05.308Z,100584.11
2017-10-18T01:13:32.758Z,100577.80
2017-10-18T01:16:00.204Z,100576.55
2017-10-18T01:18:27.699Z,100570.24
2017-10-18T01:20:55.227Z,100568.98
2017-10-18T01:23:22.699Z,100558.87
2017-10-18T01:25:50.145Z,100553.88
2017-10-18T01:28:17.609Z,100562.03
2017-10-18T01:30:45.071Z,100558.75
2017-10-18T01:33:12.552Z,100554.00
2017-10-18T01:35:39.998Z,100557.08
2017-10-18T01:38:07.475Z,100551.68
2017-10-18T01:40:34.938Z,100556.45
2017-10-18T01:43:02.432Z,100556.23
2017-10-18T01:45:30.002Z,100556.99
2017-10-18T01:47:57.470Z,100553.41
2017-10-18T01:50:24.936Z,100557.38
2017-10-18T01:52:52.411Z,100557.80
2017-10-18T01:55:19.926Z,100559.15
2017-10-18T01:57:47.413Z,100552.95
2017-10-18T02:00:14.931Z,100551.23
2017-10-18T02:02:42.515Z,100547.98
2017-10-18T02:05:09.963Z,100539.09
2017-10-18T02:07:37.535Z,100539.16
2017-10-18T02:10:05.077Z,100539.02
2017-10-18T02:12:32.541Z,100537.14
2017-10-18T02:14:59.999Z,100535.70
2017-10-18T02:17:27.548Z,100531.85
2017-10-18T02:19:55.016Z,100529.23
2017-10-18T02:22:22.560Z,100523.03
2017-10-18T02:24:50.006Z,100527.29
2017-10-18T02:27:17.500Z,100527.31
2017-10-18T02:29:44.958Z,100528.50
2017-10-18T02:32:12.478Z,100529.80
2017-10-18T02:34:39.949Z,100527.27
2017-10-18T02:37:07.452Z,100522.59
2017-10-18T02:39:34.909Z,100524.35
2017-10-18T02:42:02.387Z,100520.39
2017-10-18T02:44:29.853Z,100521.95
2017-10-18T02:46:57.331Z,100522.03
2017-10-18T02:49:24.808Z,100524.95
2017-10-18T02:51:52.254Z,100526.42
2017-10-18T02:54:19.734Z,100525.77
2017-10-18T02:56:47.208Z,100528.31
2017-10-18T02:59:14.680Z,100529.38
2017-10-18T03:01:42.147Z,100535.44
2017-10-18T03:04:09.738Z,100518.55
2017-10-18T03:06:37.182Z,100515.82
2017-10-18T03:09:04.661Z,100510.14
2017-10-18T03:11:32.132Z,100509.96
2017-10-18T03:13:59.607Z,100506.48
2017-10-18T03:16:27.055Z,100504.14
2017-10-18T03:18:54.528Z,100510.59
2017-10-18T03:21:21.990Z,100512.70
2017-10-18T03:23:49.456Z,100511.37
2017-10-18T03:26:16.915Z,100515.47
2017-10-18T03:28:44.382Z,100517.11
2017-10-18T03:31:11.857Z,100510.93
2017-10-18T03:33:39.336Z,100505.69
2017-10-18T03:36:06.782Z,100498.88
2017-10-18T03:38:34.251Z,100508.22
2017-10-18T03:41:02.264Z,100502.02
2017-10-18T03:43:29.747Z,100499.44
2017-10-18T03:45:57.213Z,100502.23
2017-10-18T03:48:24.686Z,100503.69
2017-10-18T03:50:52.131Z,100505.66
2017-10-18T03:53:19.622Z,100500.56
2017-10-18T03:55:47.130Z,100497.06
2017-10-18T03:58:14.692Z,100501.80
2017-10-18T04:00:42.179Z,100500.38
2017-10-18T04:03:09.709Z,100495.98
2017-10-18T04:05:37.191Z,100491.75
2017-10-18T04:08:04.637Z,100488.67
2017-10-18T04:10:32.175Z,100490.40
2017-10-18T04:12:59.632Z,100486.94
2017-10-18T04:15:27.107Z,100484.97
2017-10-18T04:17:54.554Z,100482.58
2017-10-18T04:20:22.113Z,100490.44
2017-10-18T04:22:49.662Z,100487.31
2017-10-18T04:25:17.135Z,100491.20
2017-10-18T04:27:44.598Z,100482.98
2017-10-18T04:30:12.071Z,100480.95
2017-10-18T04:32:39.536Z,100481.09
2017-10-18T04:35:07.023Z,100485.34
2017-10-18T04:37:34.483Z,100474.84
2017-10-18T04:40:01.964Z,100487.34
2017-10-18T04:42:29.413Z,100480.32
2017-10-18T04:44:56.890Z,100474.19
2017-10-18T04:47:24.342Z,100474.51
2017-10-18T04:49:51.809Z,100476.12
2017-10-18T04:52:19.263Z,100475.21
2017-10-18T04:54:46.739Z,100478.67
2017-10-18T04:57:14.194Z,100478.76
2017-10-18T04:59:41.675Z,100474.23
2017-10-18T05:02:09.180Z,100480.38
2017-10-18T05:04:36.660Z,100475.80
2017-10-18T05:07:04.111Z,100473.16
2017-10-18T05:09:31.586Z,100469.78
2017-10-18T05:11:59.032Z,100462.17
2017-10-18T05:14:26.512Z,100465.58
2017-10-18T05:16:53.987Z,100463.80
2017-10-18T05:19:21.468Z,100462.14
2017-10-18T05:21:48.983Z,100463.33
2017-10-18T05:24:17.402Z,100463.69
2017-10-18T05:26:44.854Z,100467.22
2017-10-18T05:29:12.324Z,100468.13
2017-10-18T05:31:39.782Z,100465.94
2017-10-18T05:34:07.235Z,100465.00
2017-10-18T05:36:34.744Z,100466.83
2017-10-18T05:39:02.227Z,100463.92
2017-10-18T05:41:29.703Z,100465.23
2017-10-18T05:43:57.177Z,100459.43
2017-10-18T05:46:24.675Z,100458.30
2017-10-18T05:48:52.174Z,100460.87
2017-10-18T05:51:19.637Z,100454.31
2017-10-18T05:53:47.077Z,100458.80
2017-10-18T05:56:14.567Z,100464.81
2017-10-18T05:58:42.028Z,100461.64
2017-10-18T06:01:09.505Z,100460.32
2017-10-18T06:03:36.965Z,100469.59
2017-10-18T06:06:04.439Z,100468.73
2017-10-18T06:08:31.900Z,100470.92
2017-10-18T06:10:59.491Z,100464.80
2017-10-18T06:13:26.975Z,100468.33
2017-10-18T06:15:54.602Z,100472.45
2017-10-18T06:18:22.290Z,100472.66
2017-10-18T06:20:50.197Z,100473.21
2017-10-18T06:23:17.862Z,100473.20
2017-10-18T06:25:45.564Z,100462.17
2017-10-18T06:28:14.081Z,100473.06
2017-10-18T06:30:41.731Z,100476.22
2017-10-18T06:33:09.379Z,100476.39
2017-10-18T06:35:37.177Z,100477.24
2017-10-18T06:38:04.728Z,100479.55
2017-10-18T06:40:32.388Z,100488.23
2017-10-18T06:43:01.216Z,100496.36
2017-10-18T06:45:29.363Z,100492.98
2017-10-18T06:47:57.125Z,100493.09
2017-10-18T06:50:24.783Z,100493.88
2017-10-18T06:52:52.551Z,100498.87
2017-10-18T06:55:20.152Z,100493.42
2017-10-18T06:57:48.386Z,100492.59
2017-10-18T07:00:16.046Z,100498.34
2017-10-18T07:02:43.686Z,100492.47
2017-10-18T07:05:11.280Z,100498.40
2017-10-18T07:07:39.134Z,100498.41
2017-10-18T07:10:06.774Z,100498.47
2017-10-18T07:12:34.661Z,100494.84
2017-10-18T07:15:02.289Z,100491.41
2017-10-18T07:17:30.188Z,100496.97
2017-10-18T07:19:57.964Z,100493.92
2017-10-18T07:22:25.547Z,100491.09
2017-10-18T07:24:53.125Z,100494.23
2017-10-18T07:27:24.727Z,100492.41
2017-10-18T07:29:52.254Z,100491.98
2017-10-18T07:32:20.154Z,100504.01
2017-10-18T07:34:47.771Z,100501.16
2017-10-18T07:37:16.087Z,100498.65
2017-10-18T07:42:22.286Z,100492.91
2017-10-18T07:44:50.257Z,100496.08
2017-10-18T07:47:17.938Z,100495.98
2017-10-18T07:49:45.611Z,100495.83
2017-10-18T07:52:13.154Z,100496.78
2017-10-18T07:54:40.639Z,100496.98
2017-10-18T07:57:08.248Z,100495.70
2017-10-18T07:59:35.789Z,100497.36
2017-10-18T08:02:03.554Z,100494.95
2017-10-18T08:04:31.025Z,100498.02
2017-10-18T08:06:58.612Z,100495.67
2017-10-18T08:09:26.127Z,100501.95
2017-10-18T08:11:53.751Z,100492.54
2017-10-18T08:14:21.299Z,100496.83
2017-10-18T08:16:48.870Z,100495.99
2017-10-18T08:19:16.372Z,100491.63
2017-10-18T08:21:43.909Z,100500.23
2017-10-18T08:24:11.479Z,100492.59
2017-10-18T08:26:39.021Z,100492.45
2017-10-18T08:29:06.477Z,100492.63
2017-10-18T08:31:33.984Z,100492.75
2017-10-18T08:34:01.471Z,100491.12
2017-10-18T08:36:29.271Z,100492.73
2017-10-18T08:38:57.131Z,100489.11
2017-10-18T08:41:24.895Z,100491.97
2017-10-18T08:43:52.772Z,100491.31
2017-10-18T08:46:20.533Z,100497.78
2017-10-18T08:48:48.401Z,100497.19
2017-10-18T08:51:16.164Z,100483.34
2017-10-18T08:53:44.031Z,100490.31
2017-10-18T08:56:11.897Z,100488.94
2017-10-18T08:58:39.660Z,100484.00
2017-10-18T09:01:07.429Z,100489.44
2017-10-18T09:03:35.886Z,100481.98
2017-10-18T09:06:03.771Z,100482.77
2017-10-18T09:08:31.607Z,100477.83
2017-10-18T09:10:59.296Z,100482.14
2017-10-18T09:13:27.164Z,100489.77
2017-10-18T09:15:54.891Z,100486.24
2017-10-18T09:18:22.692Z,100482.88
2017-10-18T09:20:50.309Z,100475.95
2017-10-18T09:23:17.944Z,100479.83
2017-10-18T09:25:45.563Z,100476.30
2017-10-18T09:28:13.222Z,100470.56
2017-10-18T09:30:40.999Z,100468.80
2017-10-18T09:33:08.761Z,100470.66
2017-10-18T09:35:36.375Z,100479.20
2017-10-18T09:38:04.040Z,100470.77
2017-10-18T09:40:31.571Z,100473.66
2017-10-18T09:43:02.376Z,100469.44
2017-10-18T09:45:29.896Z,100467.21
2017-10-18T09:47:57.371Z,100466.14
2017-10-18T09:50:24.826Z,100463.13
2017-10-18T09:52:52.370Z,100455.41
2017-10-18T09:55:19.844Z,100455.51
2017-10-18T09:57:47.335Z,100455.06
2017-10-18T10:00:14.853Z,100455.83
2017-10-18T10:02:42.307Z,100459.40
2017-10-18T10:05:09.791Z,100450.51
2017-10-18T10:07:37.293Z,100453.19
2017-10-18T10:10:04.773Z,100455.02
2017-10-18T10:12:32.217Z,100450.80
2017-10-18T10:14:59.723Z,100444.66
2017-10-18T10:17:27.210Z,100436.55
2017-10-18T10:19:54.688Z,100442.78
2017-10-18T10:22:22.151Z,100436.73
2017-10-18T10:24:49.619Z,100435.55
2017-10-18T10:27:17.156Z,100434.23
2017-10-18T10:29:44.633Z,100433.95
2017-10-18T10:32:12.083Z,100435.15
2017-10-18T10:34:39.634Z,100429.71
2017-10-18T10:37:07.115Z,100431.77
2017-10-18T10:39:34.572Z,100421.83
2017-10-18T10:42:02.052Z,100420.61
2017-10-18T10:44:29.546Z,100424.02
2017-10-18T10:46:57.039Z,100419.84
2017-10-18T10:49:24.512Z,100417.88
2017-10-18T10:51:52.011Z,100415.47
2017-10-18T10:54:19.523Z,100407.48
2017-10-18T10:56:46.994Z,100406.09
2017-10-18T10:59:14.503Z,100409.50
2017-10-18T11:01:41.995Z,100405.52
2017-10-18T11:04:09.441Z,100399.03
2017-10-18T11:06:36.969Z,100400.15
2017-10-18T11:09:04.529Z,100393.42
2017-10-18T11:11:31.997Z,100395.44
2017-10-18T11:13:59.470Z,100391.30
2017-10-18T11:16:27.000Z,100392.97
2017-10-18T11:18:54.475Z,100388.77
2017-10-18T11:21:21.932Z,100384.02
2017-10-18T11:23:49.457Z,100380.59
2017-10-18T11:26:16.916Z,100375.08
2017-10-18T11:28:44.403Z,100368.02
2017-10-18T11:31:11.854Z,100366.91
2017-10-18T11:33:39.351Z,100357.16
2017-10-18T11:36:06.806Z,100358.64
2017-10-18T11:38:34.292Z,100359.70
2017-10-18T11:41:01.779Z,100352.23
2017-10-18T11:43:29.279Z,100351.38
2017-10-18T11:45:56.733Z,100344.14
2017-10-18T11:48:24.232Z,100350.03
2017-10-18T11:50:51.717Z,100338.82
2017-10-18T11:53:19.205Z,100340.50
2017-10-18T11:55:46.650Z,100340.05
2017-10-18T11:58:14.123Z,100335.63
2017-10-18T12:00:41.584Z,100327.55
2017-10-18T12:03:09.106Z,100328.03
2017-10-18T12:05:36.586Z,100321.34
2017-10-18T12:08:04.098Z,100319.98
2017-10-18T12:10:31.662Z,100317.03
2017-10-18T12:12:59.149Z,100313.73
2017-10-18T12:15:26.623Z,100309.80
2017-10-18T12:17:54.074Z,100310.27
2017-10-18T12:20:21.595Z,100306.28
2017-10-18T12:22:49.044Z,100296.56
2017-10-18T12:25:16.559Z,100294.40
2017-10-18T12:27:44.053Z,100290.63
2017-10-18T12:30:11.627Z,100284.59
2017-10-18T12:32:39.113Z,100289.02
2017-10-18T12:35:06.657Z,100282.23
2017-10-18T12:37:34.224Z,100278.95
2017-10-18T12:40:01.700Z,100280.84
2017-10-18T12:42:29.155Z,100272.31
2017-10-18T12:44:56.632Z,100265.64
2017-10-18T12:47:24.091Z,100261.80
2017-10-18T12:49:51.564Z,100255.19
2017-10-18T12:52:19.010Z,100257.20
2017-10-18T12:54:46.473Z,100252.72
2017-10-18T12:57:13.926Z,100247.86
2017-10-18T12:59:41.392Z,100243.00
2017-10-18T13:02:08.846Z,100241.81
2017-10-18T13:04:36.332Z,100237.95
2017-10-18T13:07:03.784Z,100242.15
2017-10-18T13:09:31.259Z,100232.88
2017-10-18T13:11:58.704Z,100229.71
2017-10-18T13:14:26.295Z,100230.04
2017-10-18T13:16:53.759Z,100227.75
2017-10-18T13:19:21.252Z,100222.38
2017-10-18T13:21:48.720Z,100222.89
2017-10-18T13:24:16.208Z,100222.16
2017-10-18T13:26:43.665Z,100223.30
2017-10-18T13:29:11.133Z,100221.02
2017-10-18T13:31:38.610Z,100217.14
2017-10-18T13:34:06.075Z,100218.19
2017-10-18T13:36:33.709Z,100217.33
2017-10-18T13:39:01.165Z,100215.16
2017-10-18T13:41:28.625Z,100212.34
2017-10-18T13:43:56.139Z,100208.89
2017-10-18T13:46:23.612Z,100208.34
2017-10-18T13:48:51.151Z,100206.91
2017-10-18T13:51:18.624Z,100207.70
2017-10-18T13:53:46.086Z,100198.89
2017-10-18T13:56:13.574Z,100197.82
2017-10-18T13:58:41.031Z,100200.02
2017-10-18T14:01:08.529Z,100200.89
2017-10-18T14:03:35.987Z,100196.73
2017-10-18T14:06:03.494Z,100187.83
2017-10-18T14:08:30.951Z,100193.73
2017-10-18T14:10:58.442Z,100194.96
2017-10-18T14:13:25.915Z,100191.88
2017-10-18T14:15:53.380Z,100189.95
2017-10-18T14:18:20.929Z,100185.58
2017-10-18T14:20:48.385Z,100190.71
2017-10-18T14:23:15.847Z,100187.38
2017-10-18T14:25:43.298Z,100184.01
2017-10-18T14:28:10.764Z,100185.19
2017-10-18T14:30:38.316Z,100181.73
2017-10-18T14:33:05.794Z,100182.28
2017-10-18T14:35:33.331Z,100173.38
2017-10-18T14:38:00.827Z,100174.39
2017-10-18T14:40:28.272Z,100179.02
2017-10-18T14:42:55.786Z,100183.09
2017-10-18T14:45:23.274Z,100177.15
2017-10-18T14:47:51.073Z,100164.80
2017-10-18T14:50:18.940Z,100168.89
2017-10-18T14:52:46.810Z,100170.62
2017-10-18T14:55:14.554Z,100174.72
2017-10-18T14:57:42.049Z,100172.33
2017-10-18T15:00:09.676Z,100172.63
2017-10-18T15:02:37.509Z,100164.91
2017-10-18T15:05:05.054Z,100166.95
2017-10-18T15:07:32.504Z,100172.75
2017-10-18T15:09:59.971Z,100169.45
2017-10-18T15:12:27.406Z,100174.50
2017-10-18T15:14:54.979Z,100171.84
2017-10-18T15:17:22.456Z,100166.44
2017-10-18T15:19:49.915Z,100169.25
2017-10-18T15:22:17.376Z,100165.94
2017-10-18T15:24:44.850Z,100166.55
2017-10-18T15:27:12.302Z,100166.88
2017-10-18T15:29:39.808Z,100167.28
2017-10-18T15:32:07.254Z,100168.39
2017-10-18T15:34:34.794Z,100168.95
2017-10-18T15:37:02.248Z,100168.67
2017-10-18T15:39:29.695Z,100172.34
2017-10-18T15:41:57.151Z,100161.12
2017-10-18T15:44:24.664Z,100161.27
2017-10-18T15:46:52.134Z,100162.57
2017-10-18T15:49:19.581Z,100161.28
2017-10-18T15:51:47.053Z,100160.55
2017-10-18T15:54:14.530Z,100168.48
2017-10-18T15:56:42.053Z,100162.41
2017-10-18T15:59:09.510Z,100165.27
2017-10-18T16:01:36.983Z,100166.78
2017-10-18T16:04:04.448Z,100167.59
2017-10-18T16:06:31.977Z,100172.69
2017-10-18T16:08:59.417Z,100172.13
2017-10-18T16:11:26.911Z,100172.08
2017-10-18T16:13:54.441Z,100179.21
2017-10-18T16:16:21.923Z,100182.16
2017-10-18T16:18:49.391Z,100181.45
2017-10-18T16:21:16.875Z,100180.20
2017-10-18T16:23:44.321Z,100182.50
2017-10-18T16:26:11.838Z,100183.19
2017-10-18T16:28:39.286Z,100190.35
2017-10-18T16:31:06.861Z,100189.13
2017-10-18T16:33:34.316Z,100190.47
2017-10-18T16:36:01.806Z,100195.68
2017-10-18T16:38:29.263Z,100193.45
2017-10-18T16:40:56.737Z,100191.75
2017-10-18T16:43:24.212Z,100192.36
2017-10-18T16:45:51.707Z,100186.61
2017-10-18T16:48:19.158Z,100184.48
2017-10-18T16:50:46.622Z,100184.00
2017-10-18T16:53:14.074Z,100192.19
2017-10-18T16:55:41.558Z,100194.41
2017-10-18T16:58:09.075Z,100195.32
2017-10-18T17:00:36.537Z,100195.81
2017-10-18T17:03:04.100Z,100191.30
2017-10-18T17:05:31.586Z,100198.27
2017-10-18T17:07:59.034Z,100203.63
2017-10-18T17:10:26.484Z,100201.40
2017-10-18T17:12:54.020Z,100211.28
2017-10-18T17:15:21.499Z,100208.21
2017-10-18T17:17:49.028Z,100207.14
2017-10-18T17:20:16.470Z,100210.19
2017-10-18T17:22:43.974Z,100208.00
2017-10-18T17:25:11.423Z,100206.45
2017-10-18T17:27:38.899Z,100212.84
2017-10-18T17:30:06.426Z,100218.64
2017-10-18T17:32:33.907Z,100217.19
2017-10-18T17:35:01.350Z,100215.02
2017-10-18T17:37:28.852Z,100223.38
2017-10-18T17:39:56.296Z,100225.01
2017-10-18T17:42:23.761Z,100224.39
2017-10-18T17:44:51.216Z,100224.28
2017-10-18T17:47:18.691Z,100230.69
2017-10-18T17:49:46.180Z,100225.98
2017-10-18T17:52:13.637Z,100228.69
2017-10-18T17:54:41.112Z,100225.05
2017-10-18T17:57:08.587Z,100230.09
2017-10-18T17:59:36.065Z,100229.83
2017-10-18T18:02:03.529Z,100227.63
2017-10-18T18:04:31.006Z,100228.28
2017-10-18T18:06:58.581Z,100217.86
2017-10-18T18:09:26.034Z,100225.00
2017-10-18T18:11:53.503Z,100229.23
2017-10-18T18:14:20.946Z,100229.27
2017-10-18T18:16:48.434Z,100234.43
2017-10-18T18:19:15.974Z,100231.94
2017-10-18T18:21:43.456Z,100226.49
2017-10-18T18:24:11.030Z,100230.27
2017-10-18T18:26:38.548Z,100229.00
2017-10-18T18:29:06.006Z,100230.89
2017-10-18T18:31:33.548Z,100239.95
2017-10-18T18:34:01.113Z,100236.66
2017-10-18T18:36:28.672Z,100240.34
2017-10-18T18:38:56.274Z,100240.52
2017-10-18T18:41:23.722Z,100240.75
2017-10-18T18:43:51.203Z,100242.75
2017-10-18T18:46:18.664Z,100235.95
2017-10-18T18:48:46.147Z,100234.09
2017-10-18T18:51:13.622Z,100237.08
2017-10-18T18:53:41.414Z,100240.09
2017-10-18T18:56:08.873Z,100237.72
2017-10-18T18:58:36.351Z,100242.17
2017-10-18T19:01:03.806Z,100244.20
2017-10-18T19:03:31.288Z,100245.80
2017-10-18T19:05:58.752Z,100242.23
2017-10-18T19:08:26.236Z,100241.53
2017-10-18T19:10:53.687Z,100237.27
2017-10-18T19:13:21.157Z,100237.34
2017-10-18T19:15:48.618Z,100230.03
2017-10-18T19:18:16.143Z,100233.59
2017-10-18T19:20:43.704Z,100228.30
2017-10-18T19:23:11.194Z,100236.47
2017-10-18T19:25:38.646Z,100235.09
2017-10-18T19:28:06.117Z,100240.69
2017-10-18T19:30:33.573Z,100242.16
2017-10-18T19:33:01.072Z,100240.26
2017-10-18T19:35:28.538Z,100242.54
2017-10-18T19:37:56.027Z,100243.09
2017-10-18T19:40:23.561Z,100249.63
2017-10-18T19:42:51.060Z,100252.48
2017-10-18T19:45:18.516Z,100253.75
2017-10-18T19:47:45.995Z,100242.23
2017-10-18T19:50:13.489Z,100245.80
2017-10-18T19:52:41.147Z,100237.19
2017-10-18T19:55:08.632Z,100252.69
2017-10-18T19:57:36.094Z,100250.84
2017-10-18T20:00:03.563Z,100257.31
2017-10-18T20:02:31.074Z,100251.11
2017-10-18T20:04:58.537Z,100258.08
2017-10-18T20:07:26.082Z,100256.72
2017-10-18T20:09:53.699Z,100255.52
2017-10-18T20:12:21.141Z,100254.09
2017-10-18T20:14:48.616Z,100257.36
2017-10-18T20:17:16.066Z,100258.68
2017-10-18T20:19:43.589Z,100262.34
2017-10-18T20:22:11.042Z,100261.70
2017-10-18T20:24:38.600Z,100264.63
2017-10-18T20:27:06.056Z,100265.72
2017-10-18T20:29:33.540Z,100265.53
2017-10-18T20:32:00.982Z,100269.62
2017-10-18T20:34:28.471Z,100272.20
2017-10-18T20:36:55.919Z,100265.06
2017-10-18T20:39:23.440Z,100266.98
2017-10-18T20:41:50.896Z,100276.40
2017-10-18T20:44:18.509Z,100269.30
2017-10-18T20:46:46.021Z,100267.77
2017-10-18T20:49:13.486Z,100268.16
2017-10-18T20:51:40.939Z,100269.84
2017-10-18T20:54:08.447Z,100266.70
2017-10-18T20:56:35.898Z,100271.94
2017-10-18T20:59:03.508Z,100262.18
2017-10-18T21:01:31.066Z,100263.90
2017-10-18T21:03:58.553Z,100262.64
2017-10-18T21:06:26.079Z,100265.38
2017-10-18T21:08:53.611Z,100266.44
2017-10-18T21:11:21.073Z,100266.73
2017-10-18T21:13:48.557Z,100266.29
2017-10-18T21:16:16.039Z,100268.83
2017-10-18T21:18:43.485Z,100268.98
2017-10-18T21:21:11.016Z,100264.05
2017-10-18T21:23:38.477Z,100259.95
2017-10-18T21:26:05.972Z,100258.15
2017-10-18T21:28:33.451Z,100256.09
2017-10-18T21:31:00.935Z,100258.91
2017-10-18T21:33:28.388Z,100258.88
2017-10-18T21:35:56.738Z,100254.88
2017-10-18T21:38:24.182Z,100253.64
2017-10-18T21:40:51.651Z,100254.55
2017-10-18T21:43:19.409Z,100245.72
2017-10-18T21:45:46.924Z,100244.10
2017-10-18T21:48:14.402Z,100249.75
2017-10-18T21:50:41.940Z,100239.58
2017-10-18T21:53:09.473Z,100244.39
2017-10-18T21:55:36.944Z,100251.58
2017-10-18T21:58:04.405Z,100256.70
2017-10-18T22:00:31.889Z,100252.79
2017-10-18T22:02:59.344Z,100261.19
2017-10-18T22:05:26.845Z,100259.58
2017-10-18T22:07:54.301Z,100259.29
2017-10-18T22:10:21.770Z,100257.03
2017-10-18T22:12:49.243Z,100260.18
2017-10-18T22:15:16.727Z,100256.57
2017-10-18T22:17:44.212Z,100259.29
2017-10-18T22:20:11.683Z,100256.92
2017-10-18T22:22:39.132Z,100259.22
2017-10-18T22:25:06.635Z,100263.87
2017-10-18T22:27:34.191Z,100262.24
2017-10-18T22:30:01.748Z,100261.17
2017-10-18T22:32:30.807Z,100261.41
2017-10-18T22:34:58.300Z,100262.77
2017-10-18T22:37:25.759Z,100260.70
2017-10-18T22:39:53.208Z,100268.02
2017-10-18T22:42:20.680Z,100265.17
2017-10-18T22:44:48.122Z,100259.48
2017-10-18T22:47:15.582Z,100261.31
2017-10-18T22:49:43.136Z,100256.79
2017-10-18T22:52:10.692Z,100259.89
2017-10-18T22:54:38.134Z,100253.80
2017-10-18T22:57:05.594Z,100252.20
2017-10-18T22:59:33.067Z,100258.22
2017-10-18T23:02:00.543Z,100254.89
2017-10-18T23:04:27.996Z,100259.45
2017-10-18T23:06:55.526Z,100262.79
2017-10-18T23:09:22.977Z,100258.62
2017-10-18T23:11:50.467Z,100255.12
2017-10-18T23:14:18.008Z,100260.12
2017-10-18T23:16:45.474Z,100259.53
2017-10-18T23:19:13.010Z,100259.59
2017-10-18T23:21:40.495Z,100259.80
2017-10-18T23:24:07.976Z,100267.12
2017-10-18T23:26:35.491Z,100263.14
2017-10-18T23:29:02.935Z,100267.69
2017-10-18T23:31:30.404Z,100267.93
2017-10-18T23:33:57.842Z,100258.30
2017-10-18T23:36:25.444Z,100258.45
2017-10-18T23:38:52.885Z,100259.89
2017-10-18T23:41:20.359Z,100254.31
2017-10-18T23:43:47.830Z,100259.86
2017-10-18T23:46:15.300Z,100254.41
2017-10-18T23:48:42.773Z,100253.92
2017-10-18T23:51:10.252Z,100247.95
2017-10-18T23:53:37.698Z,100244.66
2017-10-18T23:56:05.180Z,100246.48
2017-10-18T23:58:32.634Z,100249.11
